Beltrami, Minnesota
Current Conditions -  °F | °C
As of 7:55 PM on Monday 20 Oct 2014 (Local Time) from KCKN Reporting Station
Clear Clear  
Wind Chill: 50°   Ceiling: Unl
Heat Index: 50°   Visibility: 10mi
Dew Point: 37°   Wind: 3mph
Humidity: 62%   Direction: 110°ESE
Pressure: 30.05"   Gusts: NA
Location:  47.54°N, 96.53°W
Report Text: KCKN 210055Z AUTO 11003KT 10SM CLR 10/03 A3005 RMK AO2
Loading
Personal Weather Stations






























Interactive Weather Map
Tropical Storm Tracking
New forecast layout! Learn more

10-Day Weather Forecast

Advertisements
Track Severe Weather on mobile